עמוד ראשי
METAR-TAF:

METAR-TAF

שדות תעופה :

Gamèti, הטריטוריות הצפון-מערביות, קנדה

קו רוחב: 64-06-58N, קו אורך: 117-18-35W, גובה: 221מטר

תצפית מזג אוויר נוכחית

הדו"ח נערך לפני 37דקות, בשעה 20:00 UTC
רוח 9קשר מכיוון צפון/צפון-מערב
טמפרטורת 16 צלסיוס
לחות 31%
לחץ 1010 hPa
ראות: 24.1קילומטר
מעט עננים בגובה 5000רגל
מעט עננים בגובה 15000רגל

METAR: CYRA 172000Z 34009KT 15SM FEW050 FEW150 16/M01 A2983 RMK SC1AS1 SLP114 DENSITY ALT 1100FT

זמן: 14:37 (20:37 UTC)

תחזית

הדו"ח נערך לפני 1 שעות ו 57דקות, בשעה 18:40 UTC
תחזית בתוקף מ 17 ב 19 UTC עד 17 ב 24 UTC
רוח 8קשר מכיוון צפון-מערב
ראות: 10קילומטר
מעט עננים בגובה 6000רגל
עננים פזורים בגובה 15000רגל
יעשה מ
17 ב 19 UTC עד 17 ב 20 UTC
רוח 12קשר מכיוון צפון/צפון-מערב
מ 17 ב 2200UTC
רוח 12קשר מכיוון צפון/צפון-מערב
ראות: 10קילומטר
שמיים נקיים

TAF: CYRA 171840Z 1719/1724 32008KT P6SM FEW060 SCT150 BECMG 1719/1720 34012KT FM172200 34012KT P6SM SKC RMK NXT FCST BY 181600Z

תצפיות ותחזיות מזג אוויר לגבי יותר מ- 4,000 שדות תעופה ברחבי העולם. דוחות METAR ו- TAF.

התחנות הזמינות מסומנות בנקודות צהובות ואדומות על גבי המפה.

העבר את העכבר לנקודה הצבעונית על מנת לראות את שם התחנה.

לאחר מכן, לחץ כדי לראות את תוכן ואת תחזיות מזג האוויר.

כדי לשנות את המפה: לחץ על הכפתורים הירוקים עם הפלוס השחור כדי להתקרב; על הכפתור הירוק עם המקף כדי להתרחק; או בחיצים הירוקים למפות סמוכות.


METAR-TAF: